Midway, AR

1:32 PM CDT on August 26, 2016 (GMT -0500)
High Ridge | | Change Station

Elev 900 ft 36.39 °N, 92.49 °W | Updated 11 seconds ago

Partly Cloudy
Partly Cloudy
86.0 °F
Feels Like 89 °F
N
0.0
Wind Variable Wind from East
Gusts 3.4 mph

Today
High -- | Low -- °F
--% Chance of Precip.
Yesterday
High -- | Low -- °F
Precip. -- in
Pressure 30.07 in
Visibility 10.0 miles
Clouds Few 3500 ft
Few 4900 ft
Heat Index 89 °F
Dew Point 68 °F
Humidity 55%
Rainfall 0.00 in
Snow Depth Not available.
6:37 AM 7:45 PM
Waning Crescent, 32% visible
METAR KBPK 261753Z AUTO 12006KT 10SM FEW035 FEW049 29/22 A3010 RMK AO2 SLP182 60000 T02940222 10294 20228 58009
Pressure 30.07 in
Visibility 10.0 miles
Clouds Few 3500 ft
Few 4900 ft
Heat Index 89 °F
Dew Point 68 °F
Humidity 55%
Rainfall 0.00 in
Snow Depth Not available.
6:37 AM 7:45 PM
Waning Crescent, 32% visible
METAR KBPK 261753Z AUTO 12006KT 10SM FEW035 FEW049 29/22 A3010 RMK AO2 SLP182 60000 T02940222 10294 20228 58009

10-Day Weather Forecast

Almanac

Astronomy

Aug. 26, 2016 Rise Set
Actual Time
Civil Twilight
Nautical Twilight
Astronomical Twilight
Moon
Length of Visible Light
Length of Day
Tomorrow will be .
, % of the Moon is Illuminated

Today's Extremes

State Highs State Lows

Community

WunderPhotos

Upload Photos

1,935,169 photos uploaded!

WunderBlog® & News

Nearby

Air Quality

  Air Quality AQ Index Pollutant
Not available.

Snow Depth

Station Depth Elevation

Earthquake Activity

City Distance Mag. Time & Date
Minimum magnitude displayed is 2.5.

Coastal Water Temperatures

Place Temperature

Stations

Nearby Weather Stations

Station Location Temp. Windchill Dew Point Humidity Wind Precip. Elev Updated Type
                   

Watches & Warnings

There are currently no watches in effect.